Time;durP1;ratioP1;P1;durP2;ratioP2;P2;SDS_P1;SDS_P2;PMS_P1;PMS_P2;Temp;Humidity;BMP_temperature;BMP_pressure;BME280_temperature;BME280_humidity;BME280_pressure;Samples;Min_cycle;Max_cycle;Signal;HPM_P1;HPM_P2
2022/04/18 00:00:25;;;;;;;;;;;;;;;12.23;44.30;98366.25;5066512;28;20603;-71
2022/04/18 00:02:51;;;;;;;;;;;;;;;12.18;44.42;98366.22;5075861;28;19992;-71
2022/04/18 00:05:17;;;;;;;;;;;;;;;12.05;44.81;98356.00;5078499;28;19920;-71
2022/04/18 00:07:45;;;;;;;;;;;;;;;12.09;45.12;98365.13;5079331;28;19983;-71
2022/04/18 00:10:11;;;;;;;;;;;;;;;12.04;45.03;98357.88;5077458;28;19920;-71
2022/04/18 00:12:38;;;;;;;;;;;;;;;12.06;45.02;98354.94;5073806;28;20000;-72
2022/04/18 00:15:05;;;;;;;;;;;;;;;12.05;45.15;98350.63;5076265;28;19925;-71
2022/04/18 00:23:38;;;;;;;;;;;;;;;12.02;45.41;98338.59;5068994;28;20013;-71
2022/04/18 00:29:33;;;;;;;;;;;;;;;11.99;45.36;98335.63;5077637;28;19927;-72
2022/04/18 00:31:59;;;;;;;;;;;;;;;12.00;45.31;98329.22;5073934;28;19925;-71
2022/04/18 00:34:25;;;;;;;;;;;;;;;12.00;45.23;98329.22;5077348;28;19920;-70
2022/04/18 00:36:52;;;;;;;;;;;;;;;11.99;45.20;98327.59;5078830;28;19972;-73
2022/04/18 00:39:20;;;;;;;;;;;;;;;11.96;45.20;98328.13;5076067;28;20493;-71
2022/04/18 00:41:46;;;;;;;;;;;;;;;11.91;45.32;98320.88;5075206;28;19988;-71
2022/04/18 00:44:13;;;;;;;;;;;;;;;11.91;45.14;98321.66;5075288;28;19928;-71
2022/04/18 00:46:39;;;;;;;;;;;;;;;11.92;45.17;98327.84;5075294;28;20442;-71
2022/04/18 00:49:05;;;;;;;;;;;;;;;11.90;45.46;98329.97;5074904;28;20342;-71
2022/04/18 00:51:32;;;;;;;;;;;;;;;11.77;45.34;98325.91;5078373;28;20015;-71
2022/04/18 00:53:59;;;;;;;;;;;;;;;11.82;45.17;98323.22;5078463;28;19992;-71
2022/04/18 00:56:26;;;;;;;;;;;;;;;11.81;45.41;98315.47;5053982;28;19921;-71
2022/04/18 00:58:53;;;;;;;;;;;;;;;11.79;45.26;98317.63;5070788;28;19925;-71
2022/04/18 01:01:20;;;;;;;;;;;;;;;11.83;45.47;98319.50;5077535;28;19975;-71
2022/04/18 01:03:47;;;;;;;;;;;;;;;11.81;45.38;98320.84;5078193;28;19927;-71
2022/04/18 01:06:14;;;;;;;;;;;;;;;11.76;45.38;98312.78;5076145;28;19938;-71
2022/04/18 01:08:42;;;;;;;;;;;;;;;11.75;45.28;98311.97;5074500;28;19948;-70
2022/04/18 01:11:09;;;;;;;;;;;;;;;11.79;45.52;98320.31;5075958;28;19956;-71
2022/04/18 01:13:47;;;;;;;;;;;;;;;11.80;45.35;98320.03;5076165;28;19951;-71
2022/04/18 01:16:14;;;;;;;;;;;;;;;11.71;45.65;98316.25;5074532;28;19935;-70
2022/04/18 01:18:40;;;;;;;;;;;;;;;11.64;45.75;98320.16;5074355;28;20522;-70
2022/04/18 01:21:08;;;;;;;;;;;;;;;11.69;45.83;98317.53;5074355;28;19960;-71
2022/04/18 01:23:35;;;;;;;;;;;;;;;11.68;45.46;98316.72;5077733;28;19935;-71
2022/04/18 01:29:01;;;;;;;;;;;;;;;11.61;45.86;98310.78;5074318;28;19949;-71
2022/04/18 01:31:29;;;;;;;;;;;;;;;11.47;46.04;98306.97;5066776;28;19925;-71
2022/04/18 01:33:55;;;;;;;;;;;;;;;11.36;46.11;98297.28;5073224;28;19981;-71
2022/04/18 01:36:23;;;;;;;;;;;;;;;11.27;46.94;98304.16;5077544;28;19975;-71
2022/04/18 01:38:49;;;;;;;;;;;;;;;11.39;46.44;98299.44;5077789;28;20157;-71
2022/04/18 01:41:16;;;;;;;;;;;;;;;11.48;46.23;98284.50;5075451;28;19924;-71
2022/04/18 01:43:42;;;;;;;;;;;;;;;11.48;46.54;98289.06;5071848;28;19924;-71
2022/04/18 01:46:08;;;;;;;;;;;;;;;11.40;46.77;98287.69;5075037;28;19935;-69
2022/04/18 01:48:53;;;;;;;;;;;;;;;11.42;46.83;98280.19;5074271;28;19924;-70
2022/04/18 01:51:20;;;;;;;;;;;;;;;11.49;46.61;98290.66;5076775;28;19935;-70
2022/04/18 01:53:48;;;;;;;;;;;;;;;11.46;46.69;98281.28;5077444;28;19924;-70
2022/04/18 01:56:15;;;;;;;;;;;;;;;11.47;46.74;98288.25;5075545;28;19932;-71
2022/04/18 01:58:41;;;;;;;;;;;;;;;11.49;46.91;98271.94;5073944;28;19935;-71
2022/04/18 02:01:07;;;;;;;;;;;;;;;11.45;46.88;98266.31;5073448;28;19979;-71
2022/04/18 02:03:34;;;;;;;;;;;;;;;11.46;46.83;98267.91;5077167;28;19924;-71
2022/04/18 02:06:00;;;;;;;;;;;;;;;11.36;47.03;98265.19;5077091;28;19925;-71
2022/04/18 02:08:27;;;;;;;;;;;;;;;11.40;47.45;98260.94;5072624;28;19952;-71
2022/04/18 02:10:55;;;;;;;;;;;;;;;11.42;47.19;98258.00;5073732;28;19925;-71
2022/04/18 02:13:21;;;;;;;;;;;;;;;11.40;47.09;98255.59;5074680;28;19971;-71
2022/04/18 02:15:48;;;;;;;;;;;;;;;11.38;47.10;98263.06;5076942;28;19939;-71
2022/04/18 02:18:14;;;;;;;;;;;;;;;11.38;47.42;98253.19;5074796;28;19932;-71
2022/04/18 02:20:41;;;;;;;;;;;;;;;11.37;46.99;98256.91;5073323;28;19992;-72
2022/04/18 02:23:08;;;;;;;;;;;;;;;11.39;47.09;98254.78;5072999;28;19964;-70
2022/04/18 02:25:35;;;;;;;;;;;;;;;11.36;47.16;98251.81;5076700;28;20587;-70
2022/04/18 02:28:02;;;;;;;;;;;;;;;11.34;47.19;98246.75;5075152;28;19925;-70
2022/04/18 02:30:29;;;;;;;;;;;;;;;11.35;47.38;98231.50;5073284;28;20089;-70
2022/04/18 02:32:55;;;;;;;;;;;;;;;11.31;47.37;98241.91;5073378;28;19960;-70
2022/04/18 02:35:23;;;;;;;;;;;;;;;11.34;47.47;98241.38;5076417;28;19977;-70
2022/04/18 02:37:49;;;;;;;;;;;;;;;11.35;47.71;98231.50;5076769;28;20030;-70
2022/04/18 02:40:17;;;;;;;;;;;;;;;11.35;47.87;98236.84;5072446;28;20191;-70
2022/04/18 02:42:43;;;;;;;;;;;;;;;11.34;47.97;98224.53;5071982;28;20020;-70
2022/04/18 02:45:12;;;;;;;;;;;;;;;11.24;48.07;98225.28;5074926;28;20445;-71
2022/04/18 02:47:38;;;;;;;;;;;;;;;11.26;48.14;98217.03;5077029;28;19934;-71
2022/04/18 02:50:05;;;;;;;;;;;;;;;11.19;48.27;98221.78;5074941;28;19964;-71
2022/04/18 02:52:32;;;;;;;;;;;;;;;11.21;48.28;98209.78;5073483;28;19925;-70
2022/04/18 02:54:58;;;;;;;;;;;;;;;11.20;48.54;98218.06;5073147;28;19988;-71
2022/04/18 02:57:25;;;;;;;;;;;;;;;11.08;48.68;98226.25;5065060;28;19924;-71
2022/04/18 02:59:51;;;;;;;;;;;;;;;11.03;48.92;98220.88;5071855;28;19925;-72
2022/04/18 03:02:19;;;;;;;;;;;;;;;10.71;49.02;98212.91;5075354;28;19960;-71
2022/04/18 03:04:46;;;;;;;;;;;;;;;10.54;49.85;98208.78;5076181;28;20361;-70
2022/04/18 03:07:12;;;;;;;;;;;;;;;10.41;50.44;98212.69;5074788;28;19924;-71
2022/04/18 03:09:39;;;;;;;;;;;;;;;10.45;50.68;98211.13;5072869;28;19925;-71
2022/04/18 03:12:06;;;;;;;;;;;;;;;10.61;50.24;98210.19;5072985;28;19931;-70
2022/04/18 03:14:33;;;;;;;;;;;;;;;10.73;49.83;98210.00;5076668;28;19929;-71
2022/04/18 03:16:59;;;;;;;;;;;;;;;10.67;49.47;98206.50;5077274;28;19948;-71
2022/04/18 03:19:27;;;;;;;;;;;;;;;10.71;49.74;98202.25;5069088;28;19932;-71
2022/04/18 03:21:53;;;;;;;;;;;;;;;10.74;49.84;98209.72;5076167;28;19935;-71
2022/04/18 03:24:20;;;;;;;;;;;;;;;10.77;49.37;98206.56;5079914;28;19992;-71
2022/04/18 03:26:46;;;;;;;;;;;;;;;10.77;49.39;98198.53;5080578;28;19951;-70
2022/04/18 03:29:12;;;;;;;;;;;;;;;10.80;49.27;98203.38;5078867;28;19967;-70
2022/04/18 03:31:40;;;;;;;;;;;;;;;10.66;49.76;98196.06;5076786;28;19921;-71
2022/04/18 03:34:06;;;;;;;;;;;;;;;10.51;49.97;98204.78;5077341;28;19931;-71
2022/04/18 03:42:02;;;;;;;;;;;;;;;10.79;49.41;98199.09;5076254;28;19986;-71
2022/04/18 03:44:29;;;;;;;;;;;;;;;10.60;49.67;98192.56;5076280;28;19952;-71
2022/04/18 03:46:55;;;;;;;;;;;;;;;10.58;49.87;98194.69;5076135;28;19927;-71
2022/04/18 03:49:21;;;;;;;;;;;;;;;10.54;50.10;98193.56;5079384;28;20018;-71
2022/04/18 03:51:49;;;;;;;;;;;;;;;10.55;49.96;98194.38;5079787;28;19991;-71
2022/04/18 03:54:15;;;;;;;;;;;;;;;10.40;50.66;98194.25;5077428;28;19983;-71
2022/04/18 03:56:42;;;;;;;;;;;;;;;10.46;50.29;98180.69;5076098;28;19925;-71
2022/04/18 03:59:08;;;;;;;;;;;;;;;10.51;50.33;98183.41;5077242;28;19991;-71
2022/04/18 04:01:35;;;;;;;;;;;;;;;10.48;50.16;98178.56;5079416;28;20007;-70
2022/04/18 04:04:01;;;;;;;;;;;;;;;10.52;50.08;98185.00;5077847;28;19973;-70
2022/04/18 04:06:28;;;;;;;;;;;;;;;10.12;50.95;98179.31;5075659;28;19935;-71
2022/04/18 04:08:55;;;;;;;;;;;;;;;10.33;50.78;98186.47;5075704;28;19925;-71
2022/04/18 04:11:22;;;;;;;;;;;;;;;10.28;51.11;98179.22;5078941;28;19971;-70
2022/04/18 04:13:48;;;;;;;;;;;;;;;10.29;51.10;98180.81;5077261;28;19951;-71
2022/04/18 04:16:15;;;;;;;;;;;;;;;10.40;50.89;98188.94;5076974;28;19959;-71
2022/04/18 04:18:41;;;;;;;;;;;;;;;10.39;50.90;98189.97;5075453;28;19992;-71
2022/04/18 04:21:07;;;;;;;;;;;;;;;10.44;50.75;98182.00;5076859;28;19925;-70
2022/04/18 04:23:34;;;;;;;;;;;;;;;10.44;50.78;98187.34;5079035;28;19995;-71
2022/04/18 04:26:01;;;;;;;;;;;;;;;10.43;50.85;98185.75;5078758;28;19958;-71
2022/04/18 04:28:28;;;;;;;;;;;;;;;9.90;51.95;98190.03;5075386;28;20778;-71
2022/04/18 04:30:54;;;;;;;;;;;;;;;9.76;52.45;98186.94;5075322;28;19929;-71
2022/04/18 04:33:20;;;;;;;;;;;;;;;10.05;52.38;98178.72;5078036;28;19928;-71
2022/04/18 04:35:47;;;;;;;;;;;;;;;10.09;52.61;98185.13;5078627;28;19980;-71
2022/04/18 04:38:13;;;;;;;;;;;;;;;10.19;52.32;98191.41;5076812;28;19929;-71
2022/04/18 04:40:39;;;;;;;;;;;;;;;10.29;52.07;98182.69;5075430;28;19935;-71
2022/04/18 04:43:07;;;;;;;;;;;;;;;10.36;51.82;98187.81;5072931;28;19925;-71
2022/04/18 04:45:34;;;;;;;;;;;;;;;10.35;51.74;98191.53;5078600;28;20050;-70
2022/04/18 04:48:00;;;;;;;;;;;;;;;10.13;52.13;98194.25;5078516;28;19920;-71
2022/04/18 04:50:26;;;;;;;;;;;;;;;10.15;52.65;98184.19;5074976;28;19931;-71
2022/04/18 04:52:53;;;;;;;;;;;;;;;10.23;52.48;98197.03;5075201;28;20023;-71
2022/04/18 04:55:19;;;;;;;;;;;;;;;9.61;53.58;98188.66;5077565;28;19964;-71
2022/04/18 04:57:46;;;;;;;;;;;;;;;9.89;54.06;98187.59;5077217;28;19925;-70
2022/04/18 05:00:14;;;;;;;;;;;;;;;9.91;54.05;98188.16;5076625;28;20567;-71
2022/04/18 05:02:40;;;;;;;;;;;;;;;10.04;53.66;98187.75;5074563;28;19967;-71
2022/04/18 05:05:08;;;;;;;;;;;;;;;10.01;54.13;98193.59;5075751;28;20462;-71
2022/04/18 05:07:34;;;;;;;;;;;;;;;10.13;53.72;98191.56;5077877;28;19928;-70
2022/04/18 05:10:00;;;;;;;;;;;;;;;10.18;53.86;98183.66;5076474;28;19932;-71
2022/04/18 05:12:28;;;;;;;;;;;;;;;10.23;53.96;98186.38;5072580;28;19943;-71
2022/04/18 05:14:55;;;;;;;;;;;;;;;10.22;53.94;98184.75;5074542;28;19943;-70
2022/04/18 05:17:22;;;;;;;;;;;;;;;9.81;55.28;98180.06;5077480;28;20567;-71
2022/04/18 05:19:49;;;;;;;;;;;;;;;9.51;57.25;98191.19;5078092;28;19951;-71
2022/04/18 05:22:15;;;;;;;;;;;;;;;9.49;57.28;98187.97;5075580;28;19952;-71
2022/04/18 05:24:41;;;;;;;;;;;;;;;9.35;58.42;98194.72;5074283;28;19947;-71
2022/04/18 05:27:08;;;;;;;;;;;;;;;9.13;61.05;98192.03;5075663;28;20314;-71
2022/04/18 05:29:34;;;;;;;;;;;;;;;9.15;62.25;98192.63;5077807;28;19935;-71
2022/04/18 05:32:00;;;;;;;;;;;;;;;9.59;59.93;98199.53;5077584;28;19996;-71
2022/04/18 05:34:28;;;;;;;;;;;;;;;9.55;59.64;98198.47;5074010;28;19960;-71
2022/04/18 05:36:54;;;;;;;;;;;;;;;9.53;59.01;98192.53;5073833;28;19924;-71
2022/04/18 05:39:21;;;;;;;;;;;;;;;9.17;62.85;98188.66;5076984;28;19931;-72
2022/04/18 05:41:47;;;;;;;;;;;;;;;8.79;67.23;98190.53;5077293;28;20362;-71
2022/04/18 05:44:13;;;;;;;;;;;;;;;8.91;67.04;98197.34;5074032;28;19936;-71
2022/04/18 05:46:40;;;;;;;;;;;;;;;9.35;64.16;98194.72;5073830;28;19989;-71
2022/04/18 05:49:06;;;;;;;;;;;;;;;9.65;62.16;98195.09;5074793;28;19936;-71
2022/04/18 05:51:36;;;;;;;;;;;;;;;9.91;61.04;98196.16;5076606;28;19920;-71
2022/04/18 05:54:03;;;;;;;;;;;;;;;10.09;60.09;98193.94;5077429;28;19968;-71
2022/04/18 05:56:29;;;;;;;;;;;;;;;10.06;60.23;98199.78;5074365;28;19991;-71
2022/04/18 05:58:55;;;;;;;;;;;;;;;10.30;59.39;98197.66;5074143;28;20357;-71
2022/04/18 06:01:22;;;;;;;;;;;;;;;10.28;59.47;98197.09;5076932;28;19924;-71
2022/04/18 06:03:48;;;;;;;;;;;;;;;10.22;60.15;98195.44;5077544;28;19931;-71
2022/04/18 06:06:15;;;;;;;;;;;;;;;10.50;59.70;98203.16;5075219;28;19927;-71
2022/04/18 06:08:42;;;;;;;;;;;;;;;10.89;58.40;98209.06;5073873;28;19925;-71
2022/04/18 06:11:09;;;;;;;;;;;;;;;11.22;57.48;98210.56;5075182;28;19924;-71
2022/04/18 06:13:35;;;;;;;;;;;;;;;11.45;56.40;98204.78;5073971;28;20311;-71
2022/04/18 06:16:01;;;;;;;;;;;;;;;11.47;56.18;98200.00;5075821;28;19992;-71
2022/04/18 06:18:28;;;;;;;;;;;;;;;11.70;55.62;98196.91;5072585;28;19925;-71
2022/04/18 06:20:54;;;;;;;;;;;;;;;11.85;55.02;98188.13;5073827;28;19920;-71
2022/04/18 06:23:21;;;;;;;;;;;;;;;12.04;54.87;98191.13;5075304;28;19987;-71
2022/04/18 06:25:49;;;;;;;;;;;;;;;12.10;54.70;98182.03;5077110;28;19946;-71
2022/04/18 06:28:16;;;;;;;;;;;;;;;12.05;54.58;98190.03;5073664;28;19929;-71
2022/04/18 06:30:42;;;;;;;;;;;;;;;12.04;54.63;98183.88;5073512;28;19929;-71
2022/04/18 06:33:10;;;;;;;;;;;;;;;12.14;54.54;98188.44;5074624;28;19963;-71
2022/04/18 06:35:36;;;;;;;;;;;;;;;12.33;54.50;98178.81;5076961;28;19924;-71
2022/04/18 06:38:03;;;;;;;;;;;;;;;12.39;53.99;98183.91;5076330;28;19932;-71
2022/04/18 06:40:29;;;;;;;;;;;;;;;12.00;53.74;98179.31;5071841;28;19928;-71
2022/04/18 06:42:57;;;;;;;;;;;;;;;11.58;55.80;98185.59;5070971;28;19925;-70
2022/04/18 06:45:24;;;;;;;;;;;;;;;11.72;56.49;98184.06;5076219;28;19932;-70
2022/04/18 06:47:50;;;;;;;;;;;;;;;12.04;56.68;98178.50;5080076;28;19925;-70
2022/04/18 06:50:16;;;;;;;;;;;;;;;11.97;56.50;98180.66;5078362;28;19931;-70
2022/04/18 06:52:44;;;;;;;;;;;;;;;12.15;56.40;98182.00;5077192;28;20373;-71
2022/04/18 06:55:11;;;;;;;;;;;;;;;12.27;55.03;98179.88;5078539;28;19996;-71
2022/04/18 06:57:36;;;;;;;;;;;;;;;11.69;57.09;98178.41;5078944;28;19974;-71
2022/04/18 07:00:04;;;;;;;;;;;;;;;12.19;57.25;98172.38;5079048;28;19921;-71
2022/04/18 07:02:31;;;;;;;;;;;;;;;12.61;56.03;98177.47;5076807;28;19992;-72
2022/04/18 07:04:57;;;;;;;;;;;;;;;12.39;55.61;98180.41;5076862;28;19924;-71
2022/04/18 07:07:23;;;;;;;;;;;;;;;12.72;55.58;98169.13;5079861;28;19920;-71
2022/04/18 07:09:49;;;;;;;;;;;;;;;12.82;54.85;98179.84;5080361;28;19956;-71
2022/04/18 07:12:20;;;;;;;;;;;;;;;12.72;54.28;98171.81;5078080;28;19929;-71
2022/04/18 07:14:46;;;;;;;;;;;;;;;13.03;54.86;98172.56;5080257;28;19947;-71
2022/04/18 07:17:14;;;;;;;;;;;;;;;13.08;53.87;98172.59;5076991;28;19975;-71
2022/04/18 07:19:40;;;;;;;;;;;;;;;13.14;54.47;98168.81;5076480;28;19932;-71
2022/04/18 07:22:07;;;;;;;;;;;;;;;13.19;53.74;98176.03;5077664;28;19988;-71
2022/04/18 07:24:33;;;;;;;;;;;;;;;13.28;54.15;98175.22;5078767;28;19964;-71
2022/04/18 07:27:01;;;;;;;;;;;;;;;13.32;53.91;98170.09;5080282;28;19992;-71
2022/04/18 07:29:27;;;;;;;;;;;;;;;13.27;54.03;98172.81;5068691;28;19924;-71
2022/04/18 07:32:03;;;;;;;;;;;;;;;12.79;53.93;98175.03;5076674;28;19967;-71
2022/04/18 07:34:33;;;;;;;;;;;;;;;11.94;56.48;98175.03;5068724;28;19921;-71
2022/04/18 07:36:59;;;;;;;;;;;;;;;12.24;57.34;98178.53;5076730;28;19972;-71
2022/04/18 07:39:25;;;;;;;;;;;;;;;12.03;58.72;98170.75;5068593;28;19928;-71
2022/04/18 07:41:52;;;;;;;;;;;;;;;12.33;58.14;98176.13;5076895;28;19921;-71
2022/04/18 07:44:20;;;;;;;;;;;;;;;12.09;59.03;98172.38;5079880;28;19952;-71
2022/04/18 07:46:46;;;;;;;;;;;;;;;11.99;60.05;98177.69;5080065;28;19920;-71
2022/04/18 07:49:13;;;;;;;;;;;;;;;12.31;58.88;98172.94;5080590;28;19924;-72
2022/04/18 07:51:42;;;;;;;;;;;;;;;12.28;59.04;98170.78;5078579;28;20789;-72
2022/04/18 07:54:09;;;;;;;;;;;;;;;12.36;58.40;98165.69;5078432;28;19931;-71
2022/04/18 07:56:36;;;;;;;;;;;;;;;12.19;56.79;98172.38;5079854;28;19928;-71
2022/04/18 07:59:36;;;;;;;;;;;;;;;12.29;56.77;98161.66;5077610;28;19935;-70
2022/04/18 08:02:08;;;;;;;;;;;;;;;12.56;56.23;98164.09;5076548;28;19964;-71
2022/04/18 08:04:38;;;;;;;;;;;;;;;12.40;53.13;98164.09;5079515;28;19920;-72
2022/04/18 08:07:07;;;;;;;;;;;;;;;12.48;54.97;98165.41;5078858;28;19924;-71
2022/04/18 08:09:33;;;;;;;;;;;;;;;12.55;53.52;98162.47;5074809;28;20576;-71
2022/04/18 08:11:59;;;;;;;;;;;;;;;12.33;51.26;98154.72;5074673;28;19976;-71
2022/04/18 08:15:04;;;;;;;;;;;;;;;12.32;53.07;98156.59;5068244;28;19929;-70
2022/04/18 08:17:31;;;;;;;;;;;;;;;12.37;50.21;98159.28;5068104;28;19994;-71
2022/04/18 08:19:58;;;;;;;;;;;;;;;12.03;50.73;98157.38;5076013;28;19987;-71
2022/04/18 08:22:25;;;;;;;;;;;;;;;12.19;51.72;98161.69;5079595;28;19963;-71
2022/04/18 08:24:52;;;;;;;;;;;;;;;12.22;51.84;98161.16;5078087;28;20636;-72
2022/04/18 08:27:18;;;;;;;;;;;;;;;12.40;51.54;98153.38;5076938;28;19931;-72
2022/04/18 08:29:45;;;;;;;;;;;;;;;12.31;50.55;98149.63;5075898;28;20338;-71
2022/04/18 08:32:11;;;;;;;;;;;;;;;12.46;49.72;98148.81;5077397;28;19935;-71
2022/04/18 08:34:38;;;;;;;;;;;;;;;12.45;50.60;98149.88;5079258;28;19992;-71
2022/04/18 08:37:04;;;;;;;;;;;;;;;12.34;47.88;98150.97;5078690;28;19963;-71
2022/04/18 08:39:32;;;;;;;;;;;;;;;12.25;49.32;98145.34;5075593;28;19924;-71
2022/04/18 08:42:02;;;;;;;;;;;;;;;12.50;49.41;98141.84;5075599;28;19960;-71
2022/04/18 08:44:30;;;;;;;;;;;;;;;12.52;48.03;98153.09;5066585;28;19980;-71
2022/04/18 08:52:43;;;;;;;;;;;;;;;12.52;48.54;98147.75;5075731;28;20680;-71
2022/04/18 08:52:58;;;;;;;;;;;;;;;12.63;48.13;98153.88;5078625;28;20364;-72
2022/04/18 08:55:27;;;;;;;;;;;;;;;12.64;47.02;98145.59;5075351;28;19931;-71
2022/04/18 08:58:26;;;;;;;;;;;;;;;12.74;48.31;98145.56;5075513;28;19921;-72
2022/04/18 09:00:53;;;;;;;;;;;;;;;12.47;47.74;98134.38;5082961;28;19925;-71
2022/04/18 09:03:20;;;;;;;;;;;;;;;12.25;47.53;98136.50;5077332;28;19932;-72
2022/04/18 09:05:46;;;;;;;;;;;;;;;12.54;48.20;98129.50;5079641;28;19921;-71
2022/04/18 09:08:13;;;;;;;;;;;;;;;12.50;46.60;98133.00;5076497;28;19924;-71
2022/04/18 09:10:42;;;;;;;;;;;;;;;12.42;46.75;98129.00;5074677;28;20048;-72
2022/04/18 09:13:10;;;;;;;;;;;;;;;12.78;47.60;98127.09;5080359;28;19960;-71
2022/04/18 09:15:37;;;;;;;;;;;;;;;12.72;47.02;98128.94;5075721;28;19935;-72
2022/04/18 09:18:07;;;;;;;;;;;;;;;13.22;47.69;98133.38;5074295;28;19963;-71
2022/04/18 09:20:40;;;;;;;;;;;;;;;13.43;47.43;98126.84;5078570;28;19920;-71
2022/04/18 09:23:07;;;;;;;;;;;;;;;13.59;46.92;98122.22;5077473;28;19924;-72
2022/04/18 09:25:37;;;;;;;;;;;;;;;13.52;46.88;98127.09;5074935;28;19932;-72
2022/04/18 09:28:11;;;;;;;;;;;;;;;13.58;46.54;98111.78;5075383;28;19983;-71
2022/04/18 09:30:37;;;;;;;;;;;;;;;13.45;46.37;98115.88;5076869;28;20502;-71
2022/04/18 09:33:05;;;;;;;;;;;;;;;13.68;46.76;98112.50;5077658;28;19955;-72
2022/04/18 09:35:51;;;;;;;;;;;;;;;14.18;46.52;98115.91;5068196;28;19931;-72
2022/04/18 09:38:18;;;;;;;;;;;;;;;14.43;46.11;98103.09;5075723;28;20035;-71
2022/04/18 09:40:44;;;;;;;;;;;;;;;14.58;46.31;98112.91;5077860;28;20030;-73
2022/04/18 09:46:15;;;;;;;;;;;;;;;14.50;44.70;98095.53;5075718;28;19928;-73
2022/04/18 09:48:42;;;;;;;;;;;;;;;13.95;44.77;98098.66;5074547;28;19956;-73
2022/04/18 09:51:11;;;;;;;;;;;;;;;13.83;45.35;98095.53;5074264;28;19920;-72
2022/04/18 09:53:38;;;;;;;;;;;;;;;14.11;46.79;98102.84;5078101;28;19924;-72
2022/04/18 09:56:04;;;;;;;;;;;;;;;14.22;46.71;98092.78;5077002;28;20261;-72
2022/04/18 09:58:40;;;;;;;;;;;;;;;14.51;46.36;98090.97;5073972;28;19952;-72
2022/04/18 10:01:07;;;;;;;;;;;;;;;14.50;46.49;98094.72;5073631;28;20143;-72
2022/04/18 10:03:35;;;;;;;;;;;;;;;14.51;46.67;98093.63;5077558;28;19955;-72
2022/04/18 10:06:02;;;;;;;;;;;;;;;14.65;46.59;98091.06;5077233;28;20011;-71
2022/04/18 10:08:56;;;;;;;;;;;;;;;14.69;45.98;98087.53;5073754;28;20691;-72
2022/04/18 10:11:23;;;;;;;;;;;;;;;14.49;45.05;98080.47;5077138;28;19931;-72
2022/04/18 10:13:50;;;;;;;;;;;;;;;14.28;45.65;98072.84;5075385;28;19958;-72
2022/04/18 10:16:16;;;;;;;;;;;;;;;14.59;45.92;98058.06;5075209;28;19951;-71
2022/04/18 10:18:46;;;;;;;;;;;;;;;14.78;45.45;98060.81;5073557;28;20610;-72
2022/04/18 10:21:17;;;;;;;;;;;;;;;14.80;45.65;98067.50;5075222;28;20019;-72
2022/04/18 10:24:04;;;;;;;;;;;;;;;14.92;45.60;98062.53;5077149;28;19932;-72
2022/04/18 10:26:45;;;;;;;;;;;;;;;15.02;45.19;98062.41;5065948;28;19995;-72
2022/04/18 10:29:14;;;;;;;;;;;;;;;14.92;45.30;98064.41;5075960;28;19921;-73
2022/04/18 10:31:42;;;;;;;;;;;;;;;15.06;45.20;98063.47;5077563;28;19920;-72
2022/04/18 10:34:12;;;;;;;;;;;;;;;15.21;44.93;98059.75;5076739;28;19963;-74
2022/04/18 10:36:45;;;;;;;;;;;;;;;15.18;44.04;98040.72;5074207;28;19931;-73
2022/04/18 10:39:12;;;;;;;;;;;;;;;15.03;45.01;98049.78;5075437;28;19964;-73
2022/04/18 10:41:39;;;;;;;;;;;;;;;14.97;45.21;98046.34;5076225;28;20000;-73
2022/04/18 10:44:08;;;;;;;;;;;;;;;14.97;44.83;98040.97;5073317;28;19990;-72
2022/04/18 10:46:35;;;;;;;;;;;;;;;14.57;44.68;98046.81;5072379;28;19925;-72
2022/04/18 10:49:03;;;;;;;;;;;;;;;14.80;45.20;98047.88;5073865;28;19925;-72
2022/04/18 10:51:34;;;;;;;;;;;;;;;14.62;45.79;98037.88;5077322;28;19996;-72
2022/04/18 10:54:07;;;;;;;;;;;;;;;14.72;46.23;98040.47;5077079;28;19955;-71
2022/04/18 10:56:54;;;;;;;;;;;;;;;14.65;46.60;98035.44;5066299;28;19921;-72
2022/04/18 10:59:21;;;;;;;;;;;;;;;14.74;46.43;98041.78;5074876;28;19925;-71
2022/04/18 11:01:48;;;;;;;;;;;;;;;14.52;45.63;98038.78;5077526;28;19935;-71
2022/04/18 11:04:15;;;;;;;;;;;;;;;14.25;44.86;98038.50;5074677;28;19920;-72
2022/04/18 11:06:47;;;;;;;;;;;;;;;14.12;45.37;98039.97;5073065;28;19959;-73
2022/04/18 11:09:14;;;;;;;;;;;;;;;14.15;45.44;98043.97;5074920;28;19960;-71
2022/04/18 11:11:43;;;;;;;;;;;;;;;14.12;45.13;98036.47;5076568;28;19959;-71
2022/04/18 11:14:19;;;;;;;;;;;;;;;14.11;45.50;98030.31;5073379;28;19956;-72
2022/04/18 11:16:56;;;;;;;;;;;;;;;14.01;45.58;98031.22;5073267;28;19924;-71
2022/04/18 11:19:24;;;;;;;;;;;;;;;13.95;45.37;98024.28;5076703;28;19924;-73
2022/04/18 11:22:05;;;;;;;;;;;;;;;13.80;45.58;98021.69;5076960;28;19924;-72
2022/04/18 11:24:36;;;;;;;;;;;;;;;14.19;46.16;98012.78;5066338;28;20035;-72
2022/04/18 11:27:03;;;;;;;;;;;;;;;14.50;46.91;98014.91;5072774;28;19982;-72
2022/04/18 11:29:30;;;;;;;;;;;;;;;14.72;46.63;98010.91;5076930;28;19967;-72
2022/04/18 11:31:57;;;;;;;;;;;;;;;14.87;46.34;98013.41;5076074;28;19924;-72
2022/04/18 11:34:25;;;;;;;;;;;;;;;14.69;44.08;98014.16;5073767;28;20229;-72
2022/04/18 11:36:53;;;;;;;;;;;;;;;14.52;45.70;98004.66;5076206;28;19921;-71
2022/04/18 11:39:21;;;;;;;;;;;;;;;14.66;45.34;98006.66;5078544;28;19935;-71
2022/04/18 11:41:47;;;;;;;;;;;;;;;14.79;45.23;98005.97;5078431;28;19925;-72
2022/04/18 11:44:18;;;;;;;;;;;;;;;14.64;45.99;97996.19;5076338;28;19924;-70
2022/04/18 11:46:44;;;;;;;;;;;;;;;14.76;44.72;97985.81;5076417;28;19981;-72
2022/04/18 11:49:12;;;;;;;;;;;;;;;14.69;46.36;97988.09;5077713;28;19924;-73
2022/04/18 11:51:38;;;;;;;;;;;;;;;14.92;46.45;97984.53;5078354;28;19950;-72
2022/04/18 11:54:04;;;;;;;;;;;;;;;15.06;44.75;97985.44;5079103;28;19932;-72
2022/04/18 11:56:32;;;;;;;;;;;;;;;14.96;44.24;97980.19;5074829;28;19925;-71
2022/04/18 11:59:03;;;;;;;;;;;;;;;14.71;45.56;97977.03;5076137;28;19967;-72
2022/04/18 12:06:58;;;;;;;;;;;;;;;14.80;46.47;97970.72;5079470;28;19968;-73
2022/04/18 12:09:25;;;;;;;;;;;;;;;14.68;45.49;97967.66;5076381;28;19960;-73
2022/04/18 12:11:53;;;;;;;;;;;;;;;14.75;46.36;97962.75;5076060;28;19935;-72
2022/04/18 12:14:20;;;;;;;;;;;;;;;14.92;44.51;97957.66;5078393;28;20277;-73
2022/04/18 12:16:47;;;;;;;;;;;;;;;14.65;44.93;97946.72;5079360;28;19924;-71
2022/04/18 12:19:15;;;;;;;;;;;;;;;14.61;44.25;97943.00;5077628;28;19970;-72
2022/04/18 12:21:42;;;;;;;;;;;;;;;14.33;44.82;97951.94;5075781;28;19928;-72
2022/04/18 12:24:08;;;;;;;;;;;;;;;14.34;45.12;97946.28;5076676;28;19975;-71
2022/04/18 12:26:35;;;;;;;;;;;;;;;14.47;46.02;97934.06;5079582;28;19928;-72
2022/04/18 12:29:05;;;;;;;;;;;;;;;14.28;44.82;97943.91;5079384;28;19991;-73
2022/04/18 12:31:32;;;;;;;;;;;;;;;13.89;45.00;97936.81;5076100;28;19925;-71
2022/04/18 12:33:58;;;;;;;;;;;;;;;13.96;45.37;97936.44;5076132;28;19960;-72
2022/04/18 12:36:25;;;;;;;;;;;;;;;14.09;45.58;97938.47;5077650;28;19925;-72
2022/04/18 12:38:52;;;;;;;;;;;;;;;13.93;45.08;97935.13;5078860;28;19974;-72
2022/04/18 12:41:26;;;;;;;;;;;;;;;14.29;45.95;97930.22;5076525;28;19925;-72
2022/04/18 12:43:53;;;;;;;;;;;;;;;14.47;45.26;97924.13;5075317;28;19959;-72
2022/04/18 12:46:23;;;;;;;;;;;;;;;14.32;44.97;97924.25;5077858;28;19931;-71
2022/04/18 12:48:50;;;;;;;;;;;;;;;14.39;45.41;97915.91;5078661;28;19932;-71
2022/04/18 12:51:18;;;;;;;;;;;;;;;14.39;44.77;97905.16;5075300;28;19958;-71
2022/04/18 12:53:45;;;;;;;;;;;;;;;14.55;44.72;97912.72;5073905;28;19947;-71
2022/04/18 12:56:13;;;;;;;;;;;;;;;14.66;45.90;97896.47;5075460;28;19963;-72
2022/04/18 12:58:40;;;;;;;;;;;;;;;14.72;45.02;97898.78;5077506;28;19951;-71
2022/04/18 13:01:07;;;;;;;;;;;;;;;14.90;45.21;97892.63;5076836;28;20011;-71
2022/04/18 13:03:42;;;;;;;;;;;;;;;15.10;44.42;97886.94;5075096;28;19925;-71
2022/04/18 13:06:08;;;;;;;;;;;;;;;15.06;42.94;97885.94;5076184;28;20008;-71
2022/04/18 13:08:37;;;;;;;;;;;;;;;14.88;43.84;97883.25;5077126;28;19988;-73
2022/04/18 13:11:03;;;;;;;;;;;;;;;15.21;43.95;97876.81;5078297;28;19925;-71
2022/04/18 13:13:30;;;;;;;;;;;;;;;15.28;44.25;97874.56;5074933;28;19924;-71
2022/04/18 13:15:56;;;;;;;;;;;;;;;15.45;43.03;97874.00;5074767;28;19924;-71
2022/04/18 13:18:25;;;;;;;;;;;;;;;15.35;44.12;97879.56;5077653;28;19969;-70
2022/04/18 13:20:53;;;;;;;;;;;;;;;15.51;43.18;97873.66;5078189;28;20027;-72